createdAt,value
2023-02-09T00:01:15.340Z,103181.53
2023-02-09T00:03:46.054Z,103183.59
2023-02-09T00:06:17.513Z,103176.56
2023-02-09T00:08:45.271Z,103176.16
2023-02-09T00:11:45.424Z,103167.56
2023-02-09T00:14:13.962Z,103166.91
2023-02-09T00:16:42.282Z,103171.22
2023-02-09T00:19:10.754Z,103170.19
2023-02-09T00:21:38.812Z,103164.34
2023-02-09T00:24:07.608Z,103169.91
2023-02-09T00:26:34.937Z,103169.91
2023-02-09T00:29:02.845Z,103161.44
2023-02-09T00:31:30.620Z,103175.34
2023-02-09T00:34:00.703Z,103164.59
2023-02-09T00:36:28.887Z,103166.09
2023-02-09T00:38:56.600Z,103167.34
2023-02-09T00:41:42.347Z,103179.53
2023-02-09T00:44:11.573Z,103180.53
2023-02-09T00:46:38.981Z,103173.25
2023-02-09T00:49:06.804Z,103171.25
2023-02-09T00:51:34.325Z,103175.63
2023-02-09T00:54:03.981Z,103177.44
2023-02-09T00:56:31.322Z,103176.69
2023-02-09T00:59:00.362Z,103176.75
2023-02-09T01:01:28.097Z,103169.38
2023-02-09T01:03:56.343Z,103172.94
2023-02-09T01:06:23.675Z,103165.69
2023-02-09T01:08:51.240Z,103161.09
2023-02-09T01:11:21.288Z,103169.84
2023-02-09T01:13:49.068Z,103162.81
2023-02-09T01:16:17.773Z,103149.78
2023-02-09T01:18:45.566Z,103153.34
2023-02-09T01:21:18.635Z,103154.53
2023-02-09T01:23:47.305Z,103142.31
2023-02-09T01:26:17.753Z,103147.38
2023-02-09T01:28:49.773Z,103141.16
2023-02-09T01:31:29.401Z,103141.38
2023-02-09T01:33:58.701Z,103141.97
2023-02-09T01:36:29.132Z,103134.19
2023-02-09T01:38:58.671Z,103138.78
2023-02-09T01:41:26.303Z,103134.59
2023-02-09T01:44:19.624Z,103143.03
2023-02-09T01:46:48.775Z,103129.69
2023-02-09T01:49:18.952Z,103132.13
2023-02-09T01:51:51.574Z,103125.09
2023-02-09T01:54:24.593Z,103117.03
2023-02-09T01:56:58.678Z,103113.50
2023-02-09T01:59:27.298Z,103118.44
2023-02-09T02:01:54.770Z,103112.50
2023-02-09T02:04:22.536Z,103106.44
2023-02-09T02:07:01.142Z,103110.47
2023-02-09T02:09:29.631Z,103120.31
2023-02-09T02:11:57.057Z,103117.09
2023-02-09T02:14:35.851Z,103109.59
2023-02-09T02:17:14.578Z,103104.69
2023-02-09T02:20:15.900Z,103104.44
2023-02-09T02:23:20.776Z,103102.34
2023-02-09T02:26:08.957Z,103084.97
2023-02-09T02:28:42.866Z,103092.03
2023-02-09T02:31:35.262Z,103094.50
2023-02-09T02:34:40.562Z,103073.03
2023-02-09T02:37:25.980Z,103081.31
2023-02-09T02:40:20.784Z,103078.41
2023-02-09T02:42:48.162Z,103078.75
2023-02-09T02:45:39.959Z,103074.59
2023-02-09T02:48:32.195Z,103069.28
2023-02-09T02:51:08.324Z,103066.56
2023-02-09T02:53:40.010Z,103064.91
2023-02-09T02:56:18.674Z,103064.31
2023-02-09T02:58:49.150Z,103063.50
2023-02-09T03:01:22.048Z,103057.25
2023-02-09T03:03:51.712Z,103056.19
2023-02-09T03:06:19.508Z,103062.66
2023-02-09T03:08:50.788Z,103063.44
2023-02-09T03:11:21.521Z,103061.66
2023-02-09T03:14:04.318Z,103054.81
2023-02-09T03:16:49.682Z,103067.38
2023-02-09T03:19:16.964Z,103057.25
2023-02-09T03:22:09.084Z,103049.81
2023-02-09T03:24:50.169Z,103058.03
2023-02-09T03:27:32.028Z,103061.78
2023-02-09T03:30:01.104Z,103058.09
2023-02-09T03:32:28.762Z,103055.94
2023-02-09T03:34:59.236Z,103054.41
2023-02-09T03:37:26.609Z,103058.50
2023-02-09T03:39:54.097Z,103043.22
2023-02-09T03:42:21.415Z,103056.19
2023-02-09T03:44:48.811Z,103058.19
2023-02-09T03:47:16.112Z,103053.41
2023-02-09T03:49:45.532Z,103050.31
2023-02-09T03:52:14.587Z,103043.25
2023-02-09T03:54:41.964Z,103048.81
2023-02-09T03:57:10.377Z,103054.75
2023-02-09T03:59:38.053Z,103046.72
2023-02-09T04:02:07.179Z,103055.19
2023-02-09T04:04:35.158Z,103055.53
2023-02-09T04:07:02.750Z,103058.47
2023-02-09T04:09:30.401Z,103058.84
2023-02-09T04:11:57.688Z,103056.94
2023-02-09T04:14:26.270Z,103054.44
2023-02-09T04:16:53.717Z,103049.63
2023-02-09T04:19:21.175Z,103048.19
2023-02-09T04:21:48.692Z,103052.88
2023-02-09T04:24:21.862Z,103048.56
2023-02-09T04:26:49.266Z,103049.22
2023-02-09T04:29:16.793Z,103051.44
2023-02-09T04:31:44.231Z,103049.34
2023-02-09T04:34:11.809Z,103049.38
2023-02-09T04:36:39.251Z,103048.19
2023-02-09T04:39:06.617Z,103046.47
2023-02-09T04:41:34.187Z,103053.66
2023-02-09T04:44:01.530Z,103049.34
2023-02-09T04:46:28.948Z,103048.97
2023-02-09T04:48:56.346Z,103053.88
2023-02-09T04:51:23.770Z,103042.97
2023-02-09T04:53:51.272Z,103049.66
2023-02-09T04:56:18.733Z,103049.47
2023-02-09T04:59:07.761Z,103052.34
2023-02-09T05:01:35.388Z,103044.56
2023-02-09T05:04:02.679Z,103042.25
2023-02-09T05:06:30.433Z,103050.69
2023-02-09T05:08:57.923Z,103046.28
2023-02-09T05:11:25.728Z,103044.44
2023-02-09T05:13:53.300Z,103050.19
2023-02-09T05:16:23.557Z,103050.00
2023-02-09T05:18:51.174Z,103054.84
2023-02-09T05:21:18.889Z,103050.25
2023-02-09T05:23:46.293Z,103051.66
2023-02-09T05:26:13.809Z,103052.44
2023-02-09T05:28:41.225Z,103054.91
2023-02-09T05:31:08.619Z,103051.03
2023-02-09T05:33:35.946Z,103053.81
2023-02-09T05:36:09.510Z,103054.19
2023-02-09T05:38:37.123Z,103051.91
2023-02-09T05:41:06.081Z,103044.06
2023-02-09T05:43:33.634Z,103048.78
2023-02-09T05:46:01.311Z,103056.59
2023-02-09T05:48:29.602Z,103053.88
2023-02-09T05:50:57.033Z,103054.75
2023-02-09T05:53:24.373Z,103052.94
2023-02-09T05:55:51.770Z,103060.56
2023-02-09T05:58:19.091Z,103057.56
2023-02-09T06:00:46.712Z,103050.72
2023-02-09T06:03:14.235Z,103048.63
2023-02-09T06:05:44.953Z,103053.66
2023-02-09T06:08:12.241Z,103045.44
2023-02-09T06:10:39.571Z,103055.22
2023-02-09T06:13:07.298Z,103046.91
2023-02-09T06:15:34.623Z,103035.69
2023-02-09T06:18:02.164Z,103049.63
2023-02-09T06:20:29.472Z,103039.94
2023-02-09T06:22:56.790Z,103046.66
2023-02-09T06:25:24.121Z,103044.06
2023-02-09T06:27:51.530Z,103045.38
2023-02-09T06:30:19.065Z,103053.22
2023-02-09T06:32:46.445Z,103048.78
2023-02-09T06:35:13.792Z,103052.56
2023-02-09T06:37:41.148Z,103050.47
2023-02-09T06:40:08.696Z,103054.25
2023-02-09T06:42:44.890Z,103062.06
2023-02-09T06:45:17.016Z,103058.66
2023-02-09T06:47:47.487Z,103063.63
2023-02-09T06:50:18.362Z,103068.53
2023-02-09T06:52:46.506Z,103065.00
2023-02-09T06:55:14.260Z,103069.50
2023-02-09T06:57:41.739Z,103076.94
2023-02-09T07:00:11.497Z,103068.56
2023-02-09T07:02:38.924Z,103081.47
2023-02-09T07:05:06.556Z,103081.03
2023-02-09T07:07:33.983Z,103079.88
2023-02-09T07:10:02.123Z,103084.00
2023-02-09T07:12:29.452Z,103081.28
2023-02-09T07:14:56.754Z,103084.78
2023-02-09T07:17:24.117Z,103085.97
2023-02-09T07:19:51.369Z,103082.06
2023-02-09T07:22:18.756Z,103087.22
2023-02-09T07:24:46.110Z,103083.75
2023-02-09T07:27:13.435Z,103086.38
2023-02-09T07:29:41.091Z,103090.06
2023-02-09T07:32:08.720Z,103090.84
2023-02-09T07:34:36.182Z,103096.84
2023-02-09T07:37:04.399Z,103099.19
2023-02-09T07:39:32.040Z,103105.44
2023-02-09T07:41:59.564Z,103099.22
2023-02-09T07:44:42.101Z,103100.31
2023-02-09T07:47:09.445Z,103103.16
2023-02-09T07:49:36.792Z,103099.81
2023-02-09T07:52:04.232Z,103100.13
2023-02-09T07:54:31.661Z,103101.22
2023-02-09T07:56:59.045Z,103114.41
2023-02-09T07:59:26.408Z,103107.69
2023-02-09T08:01:53.783Z,103120.63
2023-02-09T08:04:21.983Z,103114.84
2023-02-09T08:06:49.445Z,103121.69
2023-02-09T08:09:16.872Z,103117.34
2023-02-09T08:11:51.028Z,103121.84
2023-02-09T08:14:26.343Z,103119.75
2023-02-09T08:17:17.216Z,103125.81
2023-02-09T08:19:47.989Z,103126.28
2023-02-09T08:22:17.972Z,103124.25
2023-02-09T08:24:45.458Z,103112.63
2023-02-09T08:27:12.876Z,103120.94
2023-02-09T08:29:40.524Z,103126.88
2023-02-09T08:32:07.988Z,103122.69
2023-02-09T08:34:35.421Z,103114.44
2023-02-09T08:37:02.783Z,103118.25
2023-02-09T08:39:30.216Z,103118.13
2023-02-09T08:41:57.559Z,103117.50
2023-02-09T08:44:24.861Z,103111.53
2023-02-09T08:46:52.737Z,103113.41
2023-02-09T08:49:20.296Z,103105.47
2023-02-09T08:51:47.646Z,103111.81
2023-02-09T08:54:15.891Z,103110.28
2023-02-09T08:56:44.187Z,103104.41
2023-02-09T08:59:12.483Z,103101.28
2023-02-09T09:01:40.612Z,103098.00
2023-02-09T09:04:08.820Z,103106.72
2023-02-09T09:06:36.509Z,103112.19
2023-02-09T09:09:04.109Z,103098.38
2023-02-09T09:11:31.481Z,103111.84
2023-02-09T09:14:01.669Z,103113.00
2023-02-09T09:16:29.080Z,103104.66
2023-02-09T09:18:56.491Z,103105.00
2023-02-09T09:21:23.916Z,103115.50
2023-02-09T09:23:51.229Z,103114.47
2023-02-09T09:26:18.799Z,103117.81
2023-02-09T09:28:49.631Z,103119.50
2023-02-09T09:31:18.119Z,103120.06
2023-02-09T09:33:45.872Z,103132.38
2023-02-09T09:36:14.734Z,103127.22
2023-02-09T09:38:45.704Z,103132.44
2023-02-09T09:41:25.902Z,103127.00
2023-02-09T09:43:54.214Z,103123.88
2023-02-09T09:46:31.031Z,103123.19
2023-02-09T09:49:00.160Z,103121.41
2023-02-09T09:51:42.855Z,103131.56
2023-02-09T09:54:22.676Z,103118.44
2023-02-09T09:56:52.171Z,103132.91
2023-02-09T09:59:23.809Z,103135.91
2023-02-09T10:01:55.256Z,103140.56
2023-02-09T10:04:22.668Z,103139.25
2023-02-09T10:06:59.570Z,103136.69
2023-02-09T10:09:42.210Z,103134.63
2023-02-09T10:12:28.677Z,103131.84
2023-02-09T10:14:56.021Z,103138.28
2023-02-09T10:17:23.356Z,103135.41
2023-02-09T10:20:07.270Z,103130.13
2023-02-09T10:22:34.777Z,103126.47
2023-02-09T10:25:03.977Z,103133.59
2023-02-09T10:27:31.487Z,103121.00
2023-02-09T10:30:20.114Z,103121.66
2023-02-09T10:32:47.794Z,103130.88
2023-02-09T10:35:41.840Z,103124.56
2023-02-09T10:38:17.246Z,103121.25
2023-02-09T10:40:47.509Z,103117.13
2023-02-09T10:43:27.340Z,103106.41
2023-02-09T10:45:57.507Z,103111.13
2023-02-09T10:48:27.558Z,103106.16
2023-02-09T10:51:06.479Z,103099.38
2023-02-09T10:53:40.540Z,103092.53
2023-02-09T10:56:23.130Z,103092.41
2023-02-09T10:59:13.809Z,103082.53
2023-02-09T11:01:44.466Z,103087.84
2023-02-09T11:04:21.438Z,103074.91
2023-02-09T11:06:56.345Z,103073.88
2023-02-09T11:09:34.112Z,103059.63
2023-02-09T11:12:01.927Z,103066.00
2023-02-09T11:14:29.611Z,103056.91
2023-02-09T11:17:09.480Z,103052.72
2023-02-09T11:20:23.505Z,103047.38
2023-02-09T11:22:54.485Z,103052.00
2023-02-09T11:25:27.418Z,103050.75
2023-02-09T11:28:18.745Z,103042.38
2023-02-09T11:30:46.536Z,103038.91
2023-02-09T11:33:45.090Z,103038.94
2023-02-09T11:36:40.069Z,103039.00
2023-02-09T11:39:14.230Z,103042.78
2023-02-09T11:42:17.257Z,103033.41
2023-02-09T11:44:52.796Z,103030.78
2023-02-09T11:47:33.156Z,103037.44
2023-02-09T11:50:05.753Z,103028.94
2023-02-09T11:52:44.164Z,103022.25
2023-02-09T11:55:31.660Z,103013.75
2023-02-09T11:58:12.688Z,103013.44
2023-02-09T12:01:04.076Z,103010.06
2023-02-09T12:03:39.796Z,103010.56
2023-02-09T12:06:07.551Z,103012.50
2023-02-09T12:08:57.780Z,102995.59
2023-02-09T12:11:37.032Z,103008.63
2023-02-09T12:14:24.156Z,102998.69
2023-02-09T12:17:02.960Z,102995.66
2023-02-09T12:19:30.204Z,102991.78
2023-02-09T12:21:57.597Z,102990.69
2023-02-09T12:24:33.302Z,102982.41
2023-02-09T12:27:00.743Z,102986.09
2023-02-09T12:29:39.889Z,102978.28
2023-02-09T12:32:10.163Z,102964.56
2023-02-09T12:34:42.512Z,102964.78
2023-02-09T12:37:12.641Z,102961.56
2023-02-09T12:40:04.980Z,102958.75
2023-02-09T12:42:46.206Z,102961.22
2023-02-09T12:45:35.664Z,102946.16
2023-02-09T12:48:09.159Z,102952.47
2023-02-09T12:50:42.358Z,102945.00
2023-02-09T12:53:21.806Z,102936.03
2023-02-09T12:56:07.269Z,102947.59
2023-02-09T12:59:06.378Z,102944.25
2023-02-09T13:02:07.678Z,102947.81
2023-02-09T13:04:40.287Z,102943.44
2023-02-09T13:07:21.485Z,102941.75
2023-02-09T13:09:49.975Z,102939.19
2023-02-09T13:12:22.312Z,102939.63
2023-02-09T13:14:50.903Z,102943.31
2023-02-09T13:17:57.991Z,102945.00
2023-02-09T13:20:28.880Z,102938.78
2023-02-09T13:23:13.232Z,102938.78
2023-02-09T13:25:40.752Z,102945.97
2023-02-09T13:28:26.605Z,102938.13
2023-02-09T13:30:54.210Z,102931.88
2023-02-09T13:33:44.382Z,102937.28
2023-02-09T13:36:30.193Z,102937.34
2023-02-09T13:38:58.375Z,102938.19
2023-02-09T13:41:38.055Z,102929.47
2023-02-09T13:44:19.672Z,102932.38
2023-02-09T13:46:58.631Z,102930.59
2023-02-09T13:49:28.562Z,102936.41
2023-02-09T13:52:16.429Z,102929.56
2023-02-09T13:54:44.111Z,102932.81
2023-02-09T13:57:20.262Z,102941.50
2023-02-09T13:59:47.674Z,102934.19
2023-02-09T14:02:24.523Z,102929.34
2023-02-09T14:04:59.060Z,102939.72
2023-02-09T14:07:31.851Z,102934.03
2023-02-09T14:10:06.765Z,102934.19
2023-02-09T14:12:55.619Z,102935.72
2023-02-09T14:15:50.318Z,102932.81
2023-02-09T14:18:31.692Z,102929.69
2023-02-09T14:21:13.487Z,102919.03
2023-02-09T14:23:43.955Z,102923.03
2023-02-09T14:26:14.147Z,102922.66
2023-02-09T14:28:45.323Z,102917.72
2023-02-09T14:31:22.185Z,102919.28
2023-02-09T14:33:55.361Z,102920.78
2023-02-09T14:36:34.764Z,102928.03
2023-02-09T14:39:17.062Z,102923.13
2023-02-09T14:42:00.473Z,102919.88
2023-02-09T14:44:29.541Z,102916.34
2023-02-09T14:47:00.214Z,102913.78
2023-02-09T14:49:28.761Z,102914.41
2023-02-09T14:52:13.027Z,102911.59
2023-02-09T14:54:47.608Z,102912.75
2023-02-09T14:57:15.052Z,102905.56
2023-02-09T14:59:42.453Z,102913.28
2023-02-09T15:02:19.952Z,102911.44
2023-02-09T15:04:47.342Z,102909.81
2023-02-09T15:07:22.112Z,102906.44
2023-02-09T15:09:50.304Z,102914.78
2023-02-09T15:12:28.223Z,102915.94
2023-02-09T15:14:59.028Z,102903.84
2023-02-09T15:17:29.385Z,102907.19
2023-02-09T15:19:58.017Z,102908.72
2023-02-09T15:22:26.189Z,102902.03
2023-02-09T15:24:54.754Z,102905.84
2023-02-09T15:27:32.433Z,102908.91
2023-02-09T15:30:03.737Z,102910.44
2023-02-09T15:32:32.448Z,102910.53
2023-02-09T15:34:59.793Z,102914.31
2023-02-09T15:37:33.069Z,102912.91
2023-02-09T15:40:13.222Z,102910.31
2023-02-09T15:43:00.506Z,102913.94
2023-02-09T15:45:48.617Z,102922.16
2023-02-09T15:48:16.053Z,102928.13
2023-02-09T15:50:46.999Z,102926.63
2023-02-09T15:53:18.760Z,102926.75
2023-02-09T15:55:46.866Z,102922.25
2023-02-09T15:58:17.217Z,102926.88
2023-02-09T16:00:44.938Z,102926.88
2023-02-09T16:03:17.643Z,102924.50
2023-02-09T16:05:47.793Z,102923.66
2023-02-09T16:08:24.829Z,102920.41
2023-02-09T16:10:56.400Z,102924.06
2023-02-09T16:13:23.744Z,102924.72
2023-02-09T16:15:51.125Z,102929.00
2023-02-09T16:18:19.062Z,102929.16
2023-02-09T16:20:50.162Z,102934.78
2023-02-09T16:23:22.782Z,102942.16
2023-02-09T16:25:51.507Z,102937.19
2023-02-09T16:28:20.974Z,102937.50
2023-02-09T16:30:59.285Z,102944.09
2023-02-09T16:33:26.578Z,102937.50
2023-02-09T16:35:56.814Z,102934.03
2023-02-09T16:38:25.612Z,102936.16
2023-02-09T16:40:54.404Z,102942.13
2023-02-09T16:43:22.946Z,102940.88
2023-02-09T16:46:02.791Z,102942.59
2023-02-09T16:48:34.547Z,102930.47
2023-02-09T16:51:02.467Z,102943.38
2023-02-09T16:53:33.259Z,102936.09
2023-02-09T16:56:10.196Z,102936.63
2023-02-09T16:58:38.183Z,102941.56
2023-02-09T17:01:17.499Z,102948.59
2023-02-09T17:03:54.470Z,102943.66
2023-02-09T17:06:24.949Z,102946.13
2023-02-09T17:08:53.259Z,102951.38
2023-02-09T17:11:26.051Z,102949.06
2023-02-09T17:13:54.549Z,102950.59
2023-02-09T17:16:25.449Z,102950.59
2023-02-09T17:18:56.816Z,102953.91
2023-02-09T17:21:31.381Z,102958.09
2023-02-09T17:23:58.676Z,102952.66
2023-02-09T17:26:28.889Z,102954.59
2023-02-09T17:28:56.181Z,102963.50
2023-02-09T17:31:26.869Z,102969.28
2023-02-09T17:34:00.888Z,102960.41
2023-02-09T17:36:29.778Z,102961.91
2023-02-09T17:38:59.500Z,102969.16
2023-02-09T17:41:38.421Z,102968.81
2023-02-09T17:44:43.714Z,102964.75
2023-02-09T17:47:17.464Z,102968.78
2023-02-09T17:49:45.210Z,102964.75
2023-02-09T17:52:17.162Z,102973.81
2023-02-09T17:54:45.422Z,102971.13
2023-02-09T17:57:15.519Z,102966.84
2023-02-09T17:59:43.040Z,102969.38
2023-02-09T18:02:18.230Z,102975.81
2023-02-09T18:04:46.021Z,102977.63
2023-02-09T18:07:20.026Z,102975.97
2023-02-09T18:09:47.658Z,102976.06
2023-02-09T18:12:29.132Z,102985.59
2023-02-09T18:14:56.493Z,102971.72
2023-02-09T18:17:23.792Z,102979.69
2023-02-09T18:19:51.181Z,102985.41
2023-02-09T18:22:19.892Z,102989.59
2023-02-09T18:24:47.377Z,102994.53
2023-02-09T18:27:17.443Z,102997.03
2023-02-09T18:29:44.798Z,102996.25
2023-02-09T18:32:15.381Z,103007.03
2023-02-09T18:34:43.093Z,103002.50
2023-02-09T18:37:10.362Z,103011.19
2023-02-09T18:39:40.724Z,103013.25
2023-02-09T18:42:14.077Z,103019.88
2023-02-09T18:44:41.545Z,103018.84
2023-02-09T18:47:10.619Z,103017.63
2023-02-09T18:49:38.550Z,103020.31
2023-02-09T18:52:06.332Z,103017.25
2023-02-09T18:54:33.822Z,103019.72
2023-02-09T18:57:01.223Z,103014.56
2023-02-09T18:59:30.618Z,103020.34
2023-02-09T19:01:59.026Z,103017.25
2023-02-09T19:04:26.909Z,103021.56
2023-02-09T19:06:54.297Z,103020.75
2023-02-09T19:09:21.674Z,103026.75
2023-02-09T19:11:49.001Z,103033.81
2023-02-09T19:14:45.427Z,103027.41
2023-02-09T19:17:18.685Z,103031.75
2023-02-09T19:19:49.399Z,103021.19
2023-02-09T19:22:19.163Z,103029.88
2023-02-09T19:24:48.258Z,103025.97
2023-02-09T19:27:18.601Z,103028.25
2023-02-09T19:29:46.588Z,103032.38
2023-02-09T19:32:15.253Z,103034.66
2023-02-09T19:34:43.179Z,103034.03
2023-02-09T19:37:12.273Z,103024.94
2023-02-09T19:39:41.536Z,103039.41
2023-02-09T19:42:09.038Z,103036.72
2023-02-09T19:44:36.598Z,103039.19
2023-02-09T19:47:04.105Z,103028.47
2023-02-09T19:49:32.816Z,103045.19
2023-02-09T19:52:01.619Z,103041.88
2023-02-09T19:54:28.991Z,103048.06
2023-02-09T19:56:56.502Z,103056.94
2023-02-09T19:59:24.072Z,103046.19
2023-02-09T20:01:51.473Z,103050.53
2023-02-09T20:04:18.845Z,103042.91
2023-02-09T20:06:49.194Z,103045.78
2023-02-09T20:09:16.537Z,103049.91
2023-02-09T20:11:43.826Z,103044.34
2023-02-09T20:14:12.503Z,103047.44
2023-02-09T20:16:40.274Z,103043.91
2023-02-09T20:19:10.709Z,103046.41
2023-02-09T20:21:38.060Z,103056.50
2023-02-09T20:24:09.542Z,103051.13
2023-02-09T20:26:39.993Z,103054.03
2023-02-09T20:29:07.878Z,103051.56
2023-02-09T20:31:37.663Z,103052.59
2023-02-09T20:34:07.743Z,103055.69
2023-02-09T20:36:36.904Z,103052.81
2023-02-09T20:39:06.121Z,103054.25
2023-02-09T20:41:33.589Z,103058.34
2023-02-09T20:44:19.314Z,103051.75
2023-02-09T20:46:58.808Z,103049.69
2023-02-09T20:49:36.292Z,103046.81
2023-02-09T20:52:03.713Z,103050.91
2023-02-09T20:54:32.263Z,103051.50
2023-02-09T20:56:59.610Z,103049.66
2023-02-09T20:59:26.972Z,103045.94
2023-02-09T21:01:54.312Z,103048.34
2023-02-09T21:04:21.679Z,103050.63
2023-02-09T21:06:49.057Z,103055.38
2023-02-09T21:09:19.077Z,103048.75
2023-02-09T21:11:46.510Z,103053.69
2023-02-09T21:14:22.011Z,103056.31
2023-02-09T21:17:00.032Z,103049.06
2023-02-09T21:19:27.477Z,103046.75
2023-02-09T21:21:54.914Z,103049.44
2023-02-09T21:24:22.386Z,103050.31
2023-02-09T21:26:49.786Z,103048.84
2023-02-09T21:29:19.257Z,103051.72
2023-02-09T21:31:46.674Z,103051.25
2023-02-09T21:34:17.314Z,103059.66
2023-02-09T21:36:44.631Z,103051.41
2023-02-09T21:39:12.887Z,103050.97
2023-02-09T21:41:58.449Z,103046.91
2023-02-09T21:44:25.864Z,103053.63
2023-02-09T21:46:54.074Z,103045.22
2023-02-09T21:49:21.617Z,103050.69
2023-02-09T21:51:49.292Z,103048.03
2023-02-09T21:54:18.392Z,103048.50
2023-02-09T21:56:45.791Z,103038.59
2023-02-09T21:59:15.285Z,103041.00
2023-02-09T22:01:43.171Z,103039.38
2023-02-09T22:04:10.764Z,103034.84
2023-02-09T22:06:38.052Z,103038.13
2023-02-09T22:09:06.352Z,103036.28
2023-02-09T22:11:34.120Z,103048.56
2023-02-09T22:14:01.881Z,103045.88
2023-02-09T22:16:29.648Z,103040.81
2023-02-09T22:18:58.505Z,103044.81
2023-02-09T22:21:26.199Z,103040.88
2023-02-09T22:23:53.773Z,103044.59
2023-02-09T22:26:21.470Z,103039.72
2023-02-09T22:28:48.915Z,103051.03
2023-02-09T22:31:18.780Z,103049.09
2023-02-09T22:33:46.637Z,103051.09
2023-02-09T22:36:16.955Z,103041.94
2023-02-09T22:38:45.253Z,103048.03
2023-02-09T22:41:24.228Z,103038.06
2023-02-09T22:43:56.077Z,103045.69
2023-02-09T22:46:38.050Z,103041.19
2023-02-09T22:49:06.841Z,103042.13
2023-02-09T22:51:35.893Z,103037.47
2023-02-09T22:54:05.222Z,103035.91
2023-02-09T22:56:32.856Z,103040.53
2023-02-09T22:59:01.510Z,103041.84
2023-02-09T23:01:29.572Z,103033.59
2023-02-09T23:03:57.288Z,103023.72
2023-02-09T23:06:27.668Z,103027.88
2023-02-09T23:08:57.107Z,103026.59
2023-02-09T23:11:24.847Z,103019.97
2023-02-09T23:14:07.052Z,103016.13
2023-02-09T23:16:35.820Z,103016.72
2023-02-09T23:19:06.126Z,103018.38
2023-02-09T23:21:36.468Z,103019.00
2023-02-09T23:24:04.682Z,103013.84
2023-02-09T23:26:32.567Z,103013.59
2023-02-09T23:29:02.554Z,103020.25
2023-02-09T23:31:30.430Z,103014.31
2023-02-09T23:33:57.905Z,103023.34
2023-02-09T23:36:27.851Z,103016.69
2023-02-09T23:38:57.602Z,103025.03
2023-02-09T23:41:26.175Z,103014.41
2023-02-09T23:43:54.308Z,103013.00
2023-02-09T23:46:28.703Z,103005.38
2023-02-09T23:48:57.072Z,103001.53
2023-02-09T23:51:28.555Z,102999.50
2023-02-09T23:53:58.958Z,103005.34
2023-02-09T23:56:26.923Z,103002.47
2023-02-09T23:58:54.653Z,103002.13
